createdAt,value
2023-02-22T00:00:59.998Z,1.10
2023-02-22T00:03:32.498Z,1.10
2023-02-22T00:06:02.868Z,1.10
2023-02-22T00:08:32.185Z,1.00
2023-02-22T00:11:00.894Z,1.10
2023-02-22T00:13:30.436Z,1.00
2023-02-22T00:15:58.945Z,1.10
2023-02-22T00:18:28.854Z,1.20
2023-02-22T00:21:00.157Z,1.20
2023-02-22T00:23:29.985Z,1.17
2023-02-22T00:26:00.013Z,1.10
2023-02-22T00:28:30.843Z,0.87
2023-02-22T00:30:59.945Z,1.00
2023-02-22T00:33:28.732Z,1.10
2023-02-22T00:35:57.393Z,0.90
2023-02-22T00:38:27.488Z,1.10
2023-02-22T00:40:56.061Z,1.20
2023-02-22T00:43:25.251Z,1.23
2023-02-22T00:45:54.136Z,1.00
2023-02-22T00:48:22.851Z,1.13
2023-02-22T00:50:55.353Z,1.17
2023-02-22T00:53:24.310Z,0.90
2023-02-22T00:55:54.720Z,0.90
2023-02-22T00:58:24.706Z,1.00
2023-02-22T01:00:53.276Z,1.10
2023-02-22T01:03:22.397Z,1.10
2023-02-22T01:05:51.043Z,1.00
2023-02-22T01:08:20.091Z,1.00
2023-02-22T01:10:48.643Z,0.93
2023-02-22T01:13:20.051Z,1.20
2023-02-22T01:15:48.619Z,1.00
2023-02-22T01:18:17.973Z,1.00
2023-02-22T01:20:48.238Z,1.00
2023-02-22T01:23:17.494Z,1.10
2023-02-22T01:25:46.146Z,1.10
2023-02-22T01:28:15.618Z,1.27
2023-02-22T01:30:45.883Z,1.07
2023-02-22T01:33:15.620Z,1.10
2023-02-22T01:35:46.464Z,0.97
2023-02-22T01:38:15.332Z,0.97
2023-02-22T01:40:44.583Z,1.07
2023-02-22T01:43:23.502Z,1.17
2023-02-22T01:46:03.242Z,0.90
2023-02-22T01:48:34.385Z,0.90
2023-02-22T01:51:10.700Z,0.90
2023-02-22T01:53:42.107Z,0.90
2023-02-22T01:56:11.565Z,1.20
2023-02-22T01:58:42.514Z,0.90
2023-02-22T02:01:13.176Z,0.90
2023-02-22T02:03:42.431Z,0.90
2023-02-22T02:06:14.983Z,0.93
2023-02-22T02:08:49.903Z,0.83
2023-02-22T02:11:20.016Z,0.90
2023-02-22T02:13:48.671Z,0.90
2023-02-22T02:16:18.939Z,1.03
2023-02-22T02:18:47.616Z,0.90
2023-02-22T02:21:31.981Z,1.00
2023-02-22T02:24:19.119Z,1.20
2023-02-22T02:26:57.252Z,0.90
2023-02-22T02:29:40.795Z,0.80
2023-02-22T02:32:17.861Z,1.00
2023-02-22T02:34:51.824Z,0.90
2023-02-22T02:37:23.653Z,1.07
2023-02-22T02:39:53.490Z,1.03
2023-02-22T02:42:23.363Z,0.80
2023-02-22T02:44:57.384Z,1.10
2023-02-22T02:47:29.322Z,1.10
2023-02-22T02:50:00.249Z,1.00
2023-02-22T02:52:29.292Z,1.10
2023-02-22T02:54:58.522Z,1.20
2023-02-22T02:57:28.204Z,1.30
2023-02-22T02:59:56.894Z,1.33
2023-02-22T03:02:37.508Z,1.20
2023-02-22T03:05:23.600Z,1.10
2023-02-22T03:07:55.550Z,0.93
2023-02-22T03:10:30.981Z,1.20
2023-02-22T03:13:02.459Z,1.30
2023-02-22T03:15:37.180Z,1.10
2023-02-22T03:18:08.817Z,0.93
2023-02-22T03:20:43.294Z,1.07
2023-02-22T03:23:17.122Z,1.40
2023-02-22T03:25:49.433Z,0.93
2023-02-22T03:28:19.403Z,1.20
2023-02-22T03:30:50.200Z,1.20
2023-02-22T03:33:22.163Z,0.97
2023-02-22T03:35:56.827Z,1.00
2023-02-22T03:38:26.748Z,1.20
2023-02-22T03:40:56.483Z,1.00
2023-02-22T03:43:26.279Z,1.00
2023-02-22T03:45:55.107Z,1.20
2023-02-22T03:48:27.696Z,1.00
2023-02-22T03:50:58.547Z,1.17
2023-02-22T03:53:27.385Z,1.03
2023-02-22T03:55:58.350Z,1.10
2023-02-22T03:58:29.090Z,1.07
2023-02-22T04:00:57.723Z,1.13
2023-02-22T04:03:27.667Z,1.10
2023-02-22T04:05:56.243Z,1.20
2023-02-22T04:08:24.713Z,1.27
2023-02-22T04:10:53.719Z,1.00
2023-02-22T04:13:22.340Z,1.30
2023-02-22T04:15:50.845Z,1.30
2023-02-22T04:18:19.463Z,1.20
2023-02-22T04:20:49.436Z,1.17
2023-02-22T04:23:18.103Z,1.27
2023-02-22T04:25:46.784Z,1.20
2023-02-22T04:28:15.512Z,1.10
2023-02-22T04:30:44.001Z,1.13
2023-02-22T04:33:12.650Z,1.13
2023-02-22T04:35:41.480Z,1.27
2023-02-22T04:38:11.370Z,1.30
2023-02-22T04:40:40.296Z,1.00
2023-02-22T04:43:08.909Z,1.30
2023-02-22T04:45:37.400Z,1.03
2023-02-22T04:48:06.115Z,1.10
2023-02-22T04:50:34.693Z,1.30
2023-02-22T04:53:03.171Z,1.10
2023-02-22T04:55:34.163Z,1.10
2023-02-22T04:58:02.901Z,1.23
2023-02-22T05:00:31.399Z,1.20
2023-02-22T05:03:00.076Z,1.10
2023-02-22T05:05:28.661Z,1.20
2023-02-22T05:07:57.359Z,1.20
2023-02-22T05:10:25.988Z,1.00
2023-02-22T05:12:55.965Z,0.90
2023-02-22T05:15:25.392Z,0.97
2023-02-22T05:17:54.172Z,1.23
2023-02-22T05:20:24.703Z,1.00
2023-02-22T05:22:53.167Z,1.10
2023-02-22T05:25:21.815Z,1.20
2023-02-22T05:27:53.909Z,1.00
2023-02-22T05:30:24.794Z,0.97
2023-02-22T05:32:55.219Z,1.00
2023-02-22T05:35:25.715Z,0.90
2023-02-22T05:37:54.774Z,1.17
2023-02-22T05:40:24.403Z,1.20
2023-02-22T05:42:53.011Z,1.00
2023-02-22T05:45:22.410Z,1.10
2023-02-22T05:47:51.175Z,1.00
2023-02-22T05:50:21.750Z,0.87
2023-02-22T05:52:50.704Z,1.00
2023-02-22T05:55:20.284Z,1.30
2023-02-22T05:57:49.088Z,1.10
2023-02-22T06:00:18.423Z,1.20
2023-02-22T06:02:47.402Z,0.90
2023-02-22T06:05:15.911Z,0.90
2023-02-22T06:07:45.782Z,1.00
2023-02-22T06:10:14.419Z,1.03
2023-02-22T06:12:42.904Z,0.90
2023-02-22T06:15:11.391Z,1.17
2023-02-22T06:17:41.994Z,0.83
2023-02-22T06:20:11.322Z,1.00
2023-02-22T06:22:41.190Z,1.10
2023-02-22T06:25:12.075Z,1.10
2023-02-22T06:27:40.715Z,0.97
2023-02-22T06:30:12.242Z,1.30
2023-02-22T06:32:41.903Z,0.90
2023-02-22T06:35:10.434Z,1.00
2023-02-22T06:37:39.907Z,0.90
2023-02-22T06:40:08.974Z,1.17
2023-02-22T06:42:38.830Z,0.97
2023-02-22T06:45:07.642Z,1.10
2023-02-22T06:47:39.614Z,1.00
2023-02-22T06:50:09.542Z,0.80
2023-02-22T06:52:38.128Z,0.80
2023-02-22T06:55:07.173Z,1.10
2023-02-22T06:57:35.764Z,0.90
2023-02-22T07:00:06.042Z,1.00
2023-02-22T07:02:35.129Z,0.97
2023-02-22T07:05:03.700Z,0.90
2023-02-22T07:07:32.159Z,0.70
2023-02-22T07:10:02.332Z,1.00
2023-02-22T07:12:31.038Z,1.10
2023-02-22T07:14:59.499Z,0.80
2023-02-22T07:17:29.524Z,0.87
2023-02-22T07:19:58.136Z,0.80
2023-02-22T07:22:26.611Z,0.90
2023-02-22T07:24:55.400Z,1.00
2023-02-22T07:27:24.002Z,0.70
2023-02-22T07:29:52.476Z,0.90
2023-02-22T07:32:21.095Z,0.93
2023-02-22T07:34:51.239Z,1.10
2023-02-22T07:37:21.271Z,0.90
2023-02-22T07:39:50.188Z,0.80
2023-02-22T07:42:18.923Z,0.90
2023-02-22T07:44:47.343Z,0.80
2023-02-22T07:47:16.023Z,0.93
2023-02-22T07:49:44.731Z,0.80
2023-02-22T07:52:14.606Z,0.80
2023-02-22T07:54:43.328Z,0.80
2023-02-22T07:57:13.547Z,0.77
2023-02-22T07:59:42.042Z,0.70
2023-02-22T08:02:16.630Z,0.77
2023-02-22T08:04:45.107Z,0.73
2023-02-22T08:07:15.369Z,0.70
2023-02-22T08:09:43.991Z,0.70
2023-02-22T08:12:12.452Z,0.80
2023-02-22T08:14:41.036Z,0.70
2023-02-22T08:17:09.678Z,0.60
2023-02-22T08:19:39.283Z,0.80
2023-02-22T08:22:07.901Z,0.80
2023-02-22T08:24:38.056Z,1.00
2023-02-22T08:27:06.541Z,0.60
2023-02-22T08:29:35.120Z,0.77
2023-02-22T08:32:04.008Z,0.90
2023-02-22T08:34:32.576Z,0.70
2023-02-22T08:37:02.264Z,0.70
2023-02-22T08:39:30.844Z,0.60
2023-02-22T08:42:00.694Z,0.93
2023-02-22T08:44:29.558Z,0.70
2023-02-22T08:46:58.597Z,0.60
2023-02-22T08:49:27.055Z,0.80
2023-02-22T08:51:55.757Z,0.90
2023-02-22T08:54:24.478Z,0.80
2023-02-22T08:56:53.191Z,0.63
2023-02-22T08:59:23.104Z,0.83
2023-02-22T09:01:51.818Z,0.70
2023-02-22T09:04:20.444Z,0.80
2023-02-22T09:06:52.054Z,0.90
2023-02-22T09:09:21.649Z,0.70
2023-02-22T09:11:52.897Z,0.73
2023-02-22T09:14:23.223Z,0.63
2023-02-22T09:16:51.964Z,0.60
2023-02-22T09:19:20.527Z,0.60
2023-02-22T09:21:54.624Z,0.90
2023-02-22T09:24:23.288Z,1.00
2023-02-22T09:26:54.638Z,0.63
2023-02-22T09:29:25.721Z,0.80
2023-02-22T09:31:57.604Z,0.70
2023-02-22T09:34:29.839Z,0.70
2023-02-22T09:36:58.850Z,0.70
2023-02-22T09:39:27.347Z,0.70
2023-02-22T09:41:59.104Z,0.60
2023-02-22T09:44:31.319Z,0.70
2023-02-22T09:47:00.704Z,0.63
2023-02-22T09:49:31.328Z,0.60
2023-02-22T09:52:02.784Z,0.87
2023-02-22T09:54:34.318Z,0.77
2023-02-22T09:57:04.325Z,0.70
2023-02-22T09:59:37.840Z,0.70
2023-02-22T10:02:14.467Z,0.60
2023-02-22T10:04:44.796Z,0.80
2023-02-22T10:07:18.734Z,0.70
2023-02-22T10:09:48.908Z,0.80
2023-02-22T10:12:20.780Z,0.80
2023-02-22T10:14:59.168Z,0.57
2023-02-22T10:17:32.965Z,0.80
2023-02-22T10:20:10.077Z,0.70
2023-02-22T10:22:44.028Z,0.90
2023-02-22T10:25:14.753Z,1.00
2023-02-22T10:27:45.074Z,0.90
2023-02-22T10:30:25.138Z,1.00
2023-02-22T10:32:57.849Z,1.00
2023-02-22T10:35:28.169Z,0.83
2023-02-22T10:37:59.380Z,0.90
2023-02-22T10:40:33.101Z,1.00
2023-02-22T10:43:05.650Z,0.80
2023-02-22T10:45:37.190Z,0.80
2023-02-22T10:48:08.757Z,0.90
2023-02-22T10:50:39.827Z,0.90
2023-02-22T10:53:08.643Z,1.00
2023-02-22T10:55:37.977Z,1.17
2023-02-22T10:58:08.152Z,1.00
2023-02-22T11:00:39.764Z,0.97
2023-02-22T11:03:17.587Z,1.03
2023-02-22T11:05:46.348Z,0.80
2023-02-22T11:08:26.356Z,0.70
2023-02-22T11:10:55.835Z,0.80
2023-02-22T11:13:28.887Z,0.83
2023-02-22T11:16:03.337Z,0.87
2023-02-22T11:18:33.252Z,1.00
2023-02-22T11:21:06.596Z,0.80
2023-02-22T11:23:35.635Z,0.70
2023-02-22T11:26:07.768Z,0.73
2023-02-22T11:28:37.043Z,0.70
2023-02-22T11:31:17.543Z,0.80
2023-02-22T11:33:52.594Z,0.90
2023-02-22T11:36:38.093Z,0.90
2023-02-22T11:39:11.547Z,0.83
2023-02-22T11:41:40.264Z,0.80
2023-02-22T11:44:16.175Z,0.73
2023-02-22T11:46:47.168Z,0.70
2023-02-22T11:49:17.479Z,0.70
2023-02-22T11:51:50.103Z,1.00
2023-02-22T11:54:29.215Z,0.87
2023-02-22T11:57:01.722Z,0.73
2023-02-22T11:59:36.583Z,0.90
2023-02-22T12:02:22.357Z,0.70
2023-02-22T12:05:06.257Z,0.87
2023-02-22T12:07:42.367Z,0.97
2023-02-22T12:10:18.299Z,0.60
2023-02-22T12:12:57.678Z,1.07
2023-02-22T12:15:30.183Z,0.80
2023-02-22T12:18:02.735Z,0.70
2023-02-22T12:20:33.209Z,0.77
2023-02-22T12:23:04.872Z,0.73
2023-02-22T12:25:35.775Z,0.80
2023-02-22T12:28:23.619Z,0.80
2023-02-22T12:30:55.597Z,0.80
2023-02-22T12:33:28.198Z,0.80
2023-02-22T12:35:58.187Z,1.07
2023-02-22T12:38:31.479Z,0.90
2023-02-22T12:41:04.084Z,0.80
2023-02-22T12:43:35.358Z,0.90
2023-02-22T12:46:06.540Z,1.00
2023-02-22T12:48:43.676Z,0.90
2023-02-22T12:51:23.974Z,0.90
2023-02-22T12:53:56.961Z,0.83
2023-02-22T12:56:27.904Z,1.03
2023-02-22T12:59:00.266Z,0.77
2023-02-22T13:01:30.508Z,0.77
2023-02-22T13:04:08.537Z,0.90
2023-02-22T13:06:48.518Z,0.90
2023-02-22T13:09:24.514Z,1.10
2023-02-22T13:11:57.688Z,0.80
2023-02-22T13:14:35.510Z,1.10
2023-02-22T13:17:07.964Z,0.90
2023-02-22T13:19:41.657Z,1.00
2023-02-22T13:22:15.264Z,0.90
2023-02-22T13:24:54.752Z,1.00
2023-02-22T13:27:26.114Z,0.80
2023-02-22T13:29:59.072Z,0.83
2023-02-22T13:32:36.350Z,0.80
2023-02-22T13:35:21.824Z,0.93
2023-02-22T13:37:57.612Z,1.10
2023-02-22T13:40:50.154Z,0.90
2023-02-22T13:43:25.787Z,0.90
2023-02-22T13:46:04.661Z,0.80
2023-02-22T13:48:39.703Z,0.80
2023-02-22T13:51:13.278Z,1.00
2023-02-22T13:53:45.332Z,0.83
2023-02-22T13:56:15.854Z,1.00
2023-02-22T13:58:54.438Z,1.00
2023-02-22T14:01:39.924Z,1.00
2023-02-22T14:04:22.433Z,0.67
2023-02-22T14:06:52.545Z,0.90
2023-02-22T14:09:45.669Z,0.97
2023-02-22T14:12:28.973Z,1.00
2023-02-22T14:15:29.090Z,0.93
2023-02-22T14:18:00.962Z,1.00
2023-02-22T14:20:35.511Z,0.87
2023-02-22T14:23:27.611Z,1.10
2023-02-22T14:25:57.932Z,1.00
2023-02-22T14:28:39.444Z,1.10
2023-02-22T14:31:09.254Z,0.80
2023-02-22T14:33:57.812Z,0.90
2023-02-22T14:36:28.323Z,0.90
2023-02-22T14:39:00.219Z,1.00
2023-02-22T14:41:32.163Z,0.90
2023-02-22T14:44:03.806Z,1.10
2023-02-22T14:46:34.395Z,0.90
2023-02-22T14:49:05.398Z,0.90
2023-02-22T14:51:37.876Z,0.80
2023-02-22T14:54:09.683Z,0.97
2023-02-22T14:56:44.289Z,0.70
2023-02-22T14:59:17.110Z,0.90
2023-02-22T15:01:58.728Z,1.03
2023-02-22T15:04:34.542Z,0.70
2023-02-22T15:07:09.920Z,1.07
2023-02-22T15:09:40.093Z,0.80
2023-02-22T15:12:30.326Z,0.80
2023-02-22T15:15:13.825Z,0.90
2023-02-22T15:17:46.320Z,0.90
2023-02-22T15:20:17.682Z,1.27
2023-02-22T15:22:46.263Z,0.77
2023-02-22T15:25:15.088Z,0.90
2023-02-22T15:27:47.918Z,1.10
2023-02-22T15:30:20.330Z,0.93
2023-02-22T15:33:03.079Z,1.00
2023-02-22T15:35:33.990Z,1.03
2023-02-22T15:38:03.407Z,0.97
2023-02-22T15:40:34.134Z,1.10
2023-02-22T15:43:04.848Z,0.87
2023-02-22T15:45:33.547Z,0.90
2023-02-22T15:48:03.338Z,0.80
2023-02-22T15:50:33.603Z,1.00
2023-02-22T15:53:03.556Z,0.90
2023-02-22T15:55:33.720Z,0.97
2023-02-22T15:58:03.776Z,3.93
2023-02-22T16:00:37.108Z,1.90
2023-02-22T16:03:06.305Z,15.67
2023-02-22T16:05:39.018Z,16.40
2023-02-22T16:08:13.176Z,2.97
2023-02-22T16:10:51.567Z,50.57
2023-02-22T16:13:31.700Z,33.33
2023-02-22T16:16:03.664Z,23.67
2023-02-22T16:18:33.941Z,45.23
2023-02-22T16:21:07.551Z,46.37
2023-02-22T16:23:45.014Z,5.97
2023-02-22T16:26:23.952Z,2.87
2023-02-22T16:28:53.432Z,9.23
2023-02-22T16:31:25.372Z,11.87
2023-02-22T16:33:54.233Z,4.97
2023-02-22T16:36:25.055Z,8.43
2023-02-22T16:38:53.744Z,7.10
2023-02-22T16:41:22.584Z,8.63
2023-02-22T16:43:51.890Z,12.20
2023-02-22T16:46:21.188Z,4.10
2023-02-22T16:48:51.403Z,8.93
2023-02-22T16:51:20.995Z,4.93
2023-02-22T16:53:49.978Z,2.93
2023-02-22T16:56:20.311Z,9.83
2023-02-22T16:58:50.939Z,3.90
2023-02-22T17:01:19.806Z,5.83
2023-02-22T17:03:48.677Z,1.73
2023-02-22T17:06:19.108Z,5.77
2023-02-22T17:08:48.809Z,3.13
2023-02-22T17:11:17.432Z,3.70
2023-02-22T17:13:47.300Z,2.00
2023-02-22T17:16:16.830Z,2.30
2023-02-22T17:18:46.124Z,10.13
2023-02-22T17:21:16.690Z,6.43
2023-02-22T17:23:47.170Z,3.90
2023-02-22T17:26:17.080Z,1.90
2023-02-22T17:28:46.373Z,7.13
2023-02-22T17:31:21.152Z,4.87
2023-02-22T17:33:51.377Z,2.97
2023-02-22T17:36:20.937Z,2.27
2023-02-22T17:38:51.143Z,3.90
2023-02-22T17:41:19.694Z,2.73
2023-02-22T17:43:48.175Z,6.33
2023-02-22T17:46:17.303Z,22.93
2023-02-22T17:48:48.236Z,12.33
2023-02-22T17:51:16.719Z,10.17
2023-02-22T17:53:45.276Z,12.20
2023-02-22T17:56:18.566Z,6.43
2023-02-22T17:58:47.686Z,6.37
2023-02-22T18:01:24.586Z,4.70
2023-02-22T18:03:53.393Z,3.13
2023-02-22T18:06:25.460Z,14.30
2023-02-22T18:08:56.417Z,2.30
2023-02-22T18:11:27.315Z,5.30
2023-02-22T18:13:56.157Z,1.67
2023-02-22T18:16:25.590Z,1.70
2023-02-22T18:18:54.473Z,1.17
2023-02-22T18:21:23.212Z,1.30
2023-02-22T18:23:51.712Z,1.60
2023-02-22T18:26:22.434Z,1.40
2023-02-22T18:28:53.672Z,1.20
2023-02-22T18:31:22.655Z,2.57
2023-02-22T18:33:52.114Z,2.50
2023-02-22T18:36:23.429Z,3.30
2023-02-22T18:38:53.088Z,1.70
2023-02-22T18:41:25.558Z,7.73
2023-02-22T18:43:59.017Z,12.10
2023-02-22T18:46:30.304Z,4.67
2023-02-22T18:48:59.054Z,6.13
2023-02-22T18:51:27.942Z,5.70
2023-02-22T18:54:00.769Z,2.20
2023-02-22T18:56:30.838Z,1.53
2023-02-22T18:59:01.734Z,1.30
2023-02-22T19:01:30.641Z,1.33
2023-02-22T19:03:59.407Z,1.30
2023-02-22T19:06:28.149Z,1.07
2023-02-22T19:08:57.038Z,1.20
2023-02-22T19:11:26.287Z,1.20
2023-02-22T19:13:55.828Z,1.40
2023-02-22T19:16:26.658Z,1.20
2023-02-22T19:18:57.521Z,1.23
2023-02-22T19:21:26.706Z,1.33
2023-02-22T19:23:55.199Z,1.13
2023-02-22T19:26:25.038Z,1.13
2023-02-22T19:28:54.458Z,1.17
2023-02-22T19:31:26.551Z,1.20
2023-02-22T19:33:57.091Z,1.00
2023-02-22T19:36:25.717Z,1.20
2023-02-22T19:38:54.289Z,1.10
2023-02-22T19:41:23.688Z,1.20
2023-02-22T19:43:53.568Z,1.40
2023-02-22T19:46:22.512Z,1.17
2023-02-22T19:48:51.092Z,1.10
2023-02-22T19:51:24.610Z,1.20
2023-02-22T19:53:54.357Z,1.30
2023-02-22T19:56:27.388Z,1.10
2023-02-22T19:58:57.078Z,1.07
2023-02-22T20:01:26.393Z,1.00
2023-02-22T20:03:55.798Z,1.33
2023-02-22T20:06:28.157Z,1.00
2023-02-22T20:08:56.959Z,1.20
2023-02-22T20:11:26.170Z,1.00
2023-02-22T20:13:55.872Z,0.97
2023-02-22T20:16:24.538Z,1.00
2023-02-22T20:18:54.496Z,1.00
2023-02-22T20:21:24.848Z,1.20
2023-02-22T20:23:57.253Z,1.00
2023-02-22T20:26:26.222Z,1.10
2023-02-22T20:28:56.252Z,1.00
2023-02-22T20:31:25.157Z,1.00
2023-02-22T20:33:55.446Z,1.23
2023-02-22T20:36:24.051Z,1.00
2023-02-22T20:38:55.457Z,1.20
2023-02-22T20:41:25.471Z,1.30
2023-02-22T20:43:55.226Z,1.20
2023-02-22T20:46:24.977Z,1.20
2023-02-22T20:48:56.417Z,1.20
2023-02-22T20:51:25.362Z,1.00
2023-02-22T20:53:55.315Z,1.43
2023-02-22T20:56:24.766Z,1.13
2023-02-22T20:58:53.615Z,0.90
2023-02-22T21:01:22.780Z,1.40
2023-02-22T21:03:51.560Z,1.20
2023-02-22T21:06:21.640Z,1.30
2023-02-22T21:08:51.831Z,1.03
2023-02-22T21:11:21.889Z,1.27
2023-02-22T21:13:50.745Z,1.13
2023-02-22T21:16:20.470Z,1.17
2023-02-22T21:18:51.714Z,1.00
2023-02-22T21:21:20.733Z,1.07
2023-02-22T21:23:50.892Z,1.20
2023-02-22T21:26:23.594Z,1.00
2023-02-22T21:28:52.434Z,1.33
2023-02-22T21:31:22.841Z,1.20
2023-02-22T21:33:55.676Z,1.00
2023-02-22T21:36:25.839Z,1.30
2023-02-22T21:38:55.530Z,1.20
2023-02-22T21:41:27.745Z,0.90
2023-02-22T21:43:57.182Z,1.23
2023-02-22T21:46:26.257Z,0.90
2023-02-22T21:48:54.873Z,1.33
2023-02-22T21:51:25.478Z,1.20
2023-02-22T21:53:55.320Z,1.20
2023-02-22T21:56:27.604Z,1.37
2023-02-22T21:58:59.389Z,0.97
2023-02-22T22:01:28.590Z,1.13
2023-02-22T22:04:00.178Z,1.30
2023-02-22T22:06:29.638Z,1.27
2023-02-22T22:08:59.833Z,1.10
2023-02-22T22:11:30.771Z,1.07
2023-02-22T22:14:00.506Z,1.10
2023-02-22T22:16:30.341Z,1.10
2023-02-22T22:18:59.342Z,1.20
2023-02-22T22:21:27.860Z,1.23
2023-02-22T22:23:57.386Z,1.30
2023-02-22T22:26:27.525Z,1.40
2023-02-22T22:28:59.483Z,1.10
2023-02-22T22:31:29.436Z,1.37
2023-02-22T22:33:58.042Z,1.30
2023-02-22T22:36:27.669Z,1.40
2023-02-22T22:38:58.558Z,1.27
2023-02-22T22:41:29.095Z,1.37
2023-02-22T22:43:59.354Z,1.17
2023-02-22T22:46:27.879Z,1.37
2023-02-22T22:48:56.591Z,1.10
2023-02-22T22:51:25.262Z,1.17
2023-02-22T22:53:54.846Z,1.47
2023-02-22T22:56:26.596Z,1.20
2023-02-22T22:58:55.877Z,1.40
2023-02-22T23:01:27.434Z,1.40
2023-02-22T23:03:58.698Z,1.10
2023-02-22T23:06:31.026Z,1.20
2023-02-22T23:09:01.029Z,1.23
2023-02-22T23:11:30.202Z,1.60
2023-02-22T23:14:03.227Z,1.20
2023-02-22T23:16:33.489Z,1.20
2023-02-22T23:19:02.157Z,1.30
2023-02-22T23:21:30.640Z,1.30
2023-02-22T23:23:59.374Z,1.50
2023-02-22T23:26:28.152Z,1.10
2023-02-22T23:28:59.219Z,1.23
2023-02-22T23:31:28.967Z,1.00
2023-02-22T23:34:00.644Z,1.40
2023-02-22T23:36:29.534Z,0.93
2023-02-22T23:38:58.001Z,1.30
2023-02-22T23:41:28.940Z,1.30
2023-02-22T23:43:57.427Z,1.20
2023-02-22T23:46:27.197Z,1.20
2023-02-22T23:49:01.815Z,1.37
2023-02-22T23:51:39.300Z,1.27
2023-02-22T23:54:08.593Z,1.57
2023-02-22T23:56:40.019Z,1.20
2023-02-22T23:59:12.603Z,1.40
